createdAt,value
2017-12-17T00:00:50.758Z,98.20
2017-12-17T00:03:18.243Z,98.40
2017-12-17T00:05:45.760Z,98.50
2017-12-17T00:08:14.028Z,98.50
2017-12-17T00:10:42.290Z,98.50
2017-12-17T00:13:09.802Z,98.50
2017-12-17T00:15:37.294Z,98.20
2017-12-17T00:18:04.794Z,98.20
2017-12-17T00:20:33.058Z,98.20
2017-12-17T00:23:01.360Z,98.10
2017-12-17T00:25:28.862Z,98.10
2017-12-17T00:27:56.358Z,98.00
2017-12-17T00:30:24.634Z,98.40
2017-12-17T00:32:52.893Z,98.00
2017-12-17T00:35:20.400Z,98.00
2017-12-17T00:37:47.900Z,98.30
2017-12-17T00:40:16.225Z,98.30
2017-12-17T00:42:43.718Z,98.30
2017-12-17T00:45:11.222Z,98.10
2017-12-17T00:47:39.494Z,98.40
2017-12-17T00:50:07.758Z,98.20
2017-12-17T00:52:35.270Z,98.20
2017-12-17T00:55:02.810Z,98.40
2017-12-17T00:57:30.330Z,98.40
2017-12-17T00:59:57.826Z,98.20
2017-12-17T01:02:25.323Z,98.20
2017-12-17T01:04:52.826Z,98.30
2017-12-17T01:07:21.082Z,98.30
2017-12-17T01:09:48.686Z,98.30
2017-12-17T01:12:16.247Z,98.30
2017-12-17T01:14:53.724Z,98.00
2017-12-17T01:17:22.028Z,98.10
2017-12-17T01:19:49.521Z,98.10
2017-12-17T01:22:17.022Z,98.00
2017-12-17T01:24:45.291Z,98.30
2017-12-17T01:27:13.561Z,98.30
2017-12-17T01:29:41.826Z,97.90
2017-12-17T01:32:09.345Z,97.90
2017-12-17T01:34:36.844Z,97.90
2017-12-17T01:37:04.339Z,98.00
2017-12-17T01:39:31.854Z,98.00
2017-12-17T01:42:00.114Z,98.00
2017-12-17T01:44:27.626Z,98.00
2017-12-17T01:46:55.882Z,97.80
2017-12-17T01:49:24.170Z,97.50
2017-12-17T01:51:52.427Z,97.50
2017-12-17T01:54:19.915Z,97.60
2017-12-17T01:56:47.434Z,97.60
2017-12-17T01:59:14.930Z,97.60
2017-12-17T02:01:43.204Z,97.60
2017-12-17T02:04:11.468Z,97.60
2017-12-17T02:06:39.746Z,97.80
2017-12-17T02:09:08.006Z,97.50
2017-12-17T02:11:35.508Z,97.50
2017-12-17T02:14:03.063Z,97.40
2017-12-17T02:16:30.613Z,97.20
2017-12-17T02:18:58.882Z,97.70
2017-12-17T02:21:27.134Z,97.50
2017-12-17T02:23:54.646Z,97.40
2017-12-17T02:26:22.142Z,97.10
2017-12-17T02:28:49.633Z,97.40
2017-12-17T02:31:17.927Z,97.40
2017-12-17T02:33:45.450Z,97.40
2017-12-17T02:36:12.958Z,97.40
2017-12-17T02:38:40.457Z,97.00
2017-12-17T02:41:07.971Z,97.20
2017-12-17T02:43:35.475Z,96.90
2017-12-17T02:46:03.022Z,97.30
2017-12-17T02:48:30.519Z,97.00
2017-12-17T02:50:58.786Z,97.10
2017-12-17T02:53:26.287Z,97.10
2017-12-17T02:55:53.778Z,96.80
2017-12-17T02:58:21.282Z,96.70
2017-12-17T03:00:49.538Z,96.80
2017-12-17T03:03:17.843Z,97.20
2017-12-17T03:05:45.334Z,96.90
2017-12-17T03:08:12.842Z,96.90
2017-12-17T03:10:41.130Z,96.80
2017-12-17T03:13:09.385Z,96.60
2017-12-17T03:15:36.890Z,96.60
2017-12-17T03:18:04.377Z,96.70
2017-12-17T03:20:31.882Z,96.70
2017-12-17T03:23:00.142Z,97.00
2017-12-17T03:25:28.426Z,97.30
2017-12-17T03:27:56.685Z,97.00
2017-12-17T03:30:24.194Z,97.00
2017-12-17T03:32:51.734Z,97.10
2017-12-17T03:35:19.994Z,96.90
2017-12-17T03:37:48.270Z,96.90
2017-12-17T03:40:16.534Z,97.10
2017-12-17T03:42:44.109Z,97.00
2017-12-17T03:45:12.374Z,97.20
2017-12-17T03:47:39.877Z,96.90
2017-12-17T03:50:07.374Z,96.90
2017-12-17T03:52:34.914Z,96.50
2017-12-17T03:55:02.407Z,96.70
2017-12-17T03:57:29.904Z,96.60
2017-12-17T03:59:57.415Z,96.30
2017-12-17T04:02:25.691Z,96.50
2017-12-17T04:04:53.203Z,96.60
2017-12-17T04:07:20.689Z,96.60
2017-12-17T04:09:48.195Z,96.80
2017-12-17T04:12:16.452Z,96.90
2017-12-17T04:14:43.962Z,96.90
2017-12-17T04:17:11.458Z,96.90
2017-12-17T04:19:38.950Z,97.20
2017-12-17T04:22:07.218Z,97.00
2017-12-17T04:24:35.482Z,97.30
2017-12-17T04:27:02.989Z,97.30
2017-12-17T04:29:30.485Z,97.60
2017-12-17T04:31:57.994Z,97.50
2017-12-17T04:34:25.493Z,97.20
2017-12-17T04:36:53.010Z,97.30
2017-12-17T04:39:20.500Z,97.30
2017-12-17T04:41:47.990Z,97.20
2017-12-17T04:44:16.269Z,97.40
2017-12-17T04:46:43.762Z,97.40
2017-12-17T04:49:11.269Z,97.50
2017-12-17T04:51:38.763Z,97.60
2017-12-17T04:54:07.034Z,97.60
2017-12-17T04:56:35.293Z,97.70
2017-12-17T04:59:02.810Z,97.70
2017-12-17T05:01:30.310Z,97.60
2017-12-17T05:03:58.640Z,97.50
2017-12-17T05:06:26.185Z,97.50
2017-12-17T05:08:53.679Z,97.40
2017-12-17T05:11:21.185Z,97.40
2017-12-17T05:13:49.479Z,97.40
2017-12-17T05:16:16.996Z,97.40
2017-12-17T05:18:44.500Z,97.80
2017-12-17T05:21:12.056Z,97.50
2017-12-17T05:23:39.550Z,97.80
2017-12-17T05:26:07.048Z,97.50
2017-12-17T05:28:35.351Z,97.60
2017-12-17T05:31:02.847Z,97.60
2017-12-17T05:33:30.350Z,97.70
2017-12-17T05:35:58.606Z,97.40
2017-12-17T05:38:26.119Z,97.40
2017-12-17T05:40:53.616Z,97.40
2017-12-17T05:43:21.111Z,97.70
2017-12-17T05:45:49.382Z,97.60
2017-12-17T05:48:17.641Z,97.70
2017-12-17T05:50:45.150Z,97.70
2017-12-17T05:53:12.689Z,97.70
2017-12-17T05:55:40.967Z,97.80
2017-12-17T05:58:09.222Z,97.80
2017-12-17T06:00:37.486Z,97.60
2017-12-17T06:03:04.992Z,97.70
2017-12-17T06:05:32.486Z,97.70
2017-12-17T06:07:59.994Z,97.90
2017-12-17T06:10:28.256Z,97.90
2017-12-17T06:12:56.538Z,97.60
2017-12-17T06:15:24.830Z,97.60
2017-12-17T06:17:52.318Z,97.60
2017-12-17T06:20:19.825Z,97.60
2017-12-17T06:22:48.086Z,97.60
2017-12-17T06:25:15.596Z,97.60
2017-12-17T06:27:43.090Z,97.50
2017-12-17T06:30:10.598Z,97.50
2017-12-17T06:32:38.106Z,97.50
2017-12-17T06:35:05.598Z,97.50
2017-12-17T06:37:33.870Z,97.30
2017-12-17T06:40:02.131Z,97.30
2017-12-17T06:42:29.639Z,97.30
2017-12-17T06:44:57.140Z,97.20
2017-12-17T06:47:24.646Z,97.40
2017-12-17T06:49:52.897Z,97.70
2017-12-17T06:52:21.163Z,97.80
2017-12-17T06:54:48.670Z,97.50
2017-12-17T06:57:16.163Z,97.60
2017-12-17T06:59:43.669Z,97.80
2017-12-17T07:02:11.930Z,97.30
2017-12-17T07:04:40.593Z,97.80
2017-12-17T07:07:08.087Z,97.50
2017-12-17T07:09:36.371Z,97.40
2017-12-17T07:12:03.862Z,97.40
2017-12-17T07:14:31.349Z,97.40
2017-12-17T07:16:58.850Z,97.70
2017-12-17T07:19:26.338Z,97.50
2017-12-17T07:21:53.842Z,97.30
2017-12-17T07:24:22.156Z,97.30
2017-12-17T07:26:49.662Z,97.20
2017-12-17T07:29:17.160Z,97.10
2017-12-17T07:31:44.718Z,97.20
2017-12-17T07:34:12.211Z,97.30
2017-12-17T07:36:39.701Z,97.40
2017-12-17T07:39:07.297Z,97.20
2017-12-17T07:41:34.810Z,97.60
2017-12-17T07:44:02.314Z,97.50
2017-12-17T07:46:29.878Z,97.50
2017-12-17T07:48:57.426Z,97.30
2017-12-17T07:51:25.683Z,97.40
2017-12-17T07:53:53.965Z,98.20
2017-12-17T07:56:22.233Z,97.70
2017-12-17T07:58:49.942Z,97.70
2017-12-17T08:01:17.450Z,97.70
2017-12-17T08:03:44.941Z,97.60
2017-12-17T08:06:13.217Z,98.00
2017-12-17T08:08:40.711Z,98.00
2017-12-17T08:11:08.219Z,97.60
2017-12-17T08:13:36.474Z,97.90
2017-12-17T08:16:03.988Z,97.90
2017-12-17T08:18:31.483Z,97.80
2017-12-17T08:20:58.978Z,97.90
2017-12-17T08:23:27.246Z,98.00
2017-12-17T08:25:55.502Z,98.30
2017-12-17T08:28:23.005Z,98.30
2017-12-17T08:30:50.494Z,97.90
2017-12-17T08:33:18.001Z,97.80
2017-12-17T08:35:46.253Z,97.80
2017-12-17T08:38:13.746Z,97.80
2017-12-17T08:40:42.035Z,98.00
2017-12-17T08:43:09.534Z,98.20
2017-12-17T08:45:37.043Z,97.80
2017-12-17T08:48:06.057Z,97.80
2017-12-17T08:50:33.570Z,97.80
2017-12-17T08:53:01.070Z,97.80
2017-12-17T08:55:28.566Z,97.70
2017-12-17T08:57:56.092Z,97.80
2017-12-17T09:00:23.595Z,97.70
2017-12-17T09:02:51.099Z,97.80
2017-12-17T09:05:18.592Z,97.70
2017-12-17T09:07:46.180Z,97.70
2017-12-17T09:10:13.670Z,98.10
2017-12-17T09:12:41.949Z,97.80
2017-12-17T09:15:09.439Z,97.80
2017-12-17T09:17:36.930Z,97.90
2017-12-17T09:20:04.440Z,97.90
2017-12-17T09:22:31.934Z,98.10
2017-12-17T09:24:59.443Z,98.10
2017-12-17T09:27:26.978Z,98.00
2017-12-17T09:29:55.252Z,98.10
2017-12-17T09:32:23.533Z,98.10
2017-12-17T09:34:51.815Z,97.90
2017-12-17T09:37:20.079Z,98.00
2017-12-17T09:39:47.580Z,98.00
2017-12-17T09:42:15.101Z,97.80
2017-12-17T09:44:43.370Z,97.70
2017-12-17T09:47:10.879Z,97.70
2017-12-17T09:49:38.394Z,97.70
2017-12-17T09:52:06.677Z,98.30
2017-12-17T09:54:34.937Z,97.90
2017-12-17T09:57:02.422Z,97.90
2017-12-17T09:59:30.885Z,97.80
2017-12-17T10:01:59.159Z,97.70
2017-12-17T10:04:26.695Z,97.70
2017-12-17T10:06:54.204Z,97.70
2017-12-17T10:09:22.475Z,97.70
2017-12-17T10:11:50.742Z,97.40
2017-12-17T10:14:19.042Z,97.50
2017-12-17T10:16:46.598Z,97.40
2017-12-17T10:19:14.086Z,97.50
2017-12-17T10:21:41.597Z,97.30
2017-12-17T10:24:09.912Z,97.30
2017-12-17T10:26:37.438Z,97.30
2017-12-17T10:29:05.747Z,97.20
2017-12-17T10:31:33.270Z,97.20
2017-12-17T10:34:01.529Z,97.20
2017-12-17T10:36:29.927Z,97.00
2017-12-17T10:38:58.274Z,96.90
2017-12-17T10:41:25.798Z,96.90
2017-12-17T10:43:53.327Z,96.80
2017-12-17T10:46:21.631Z,96.50
2017-12-17T10:48:49.168Z,96.50
2017-12-17T10:51:16.724Z,96.80
2017-12-17T10:53:45.851Z,96.80
2017-12-17T10:56:13.346Z,96.80
2017-12-17T10:58:40.868Z,96.70
2017-12-17T11:01:08.408Z,96.50
2017-12-17T11:03:36.796Z,96.80
2017-12-17T11:06:04.598Z,96.80
2017-12-17T11:08:32.134Z,96.80
2017-12-17T11:10:59.652Z,96.30
2017-12-17T11:13:27.955Z,96.50
2017-12-17T11:15:55.470Z,96.50
2017-12-17T11:18:22.970Z,96.50
2017-12-17T11:22:31.782Z,96.80
2017-12-17T11:25:00.077Z,96.50
2017-12-17T11:27:28.351Z,96.40
2017-12-17T11:29:56.612Z,96.40
2017-12-17T11:32:24.919Z,97.20
2017-12-17T11:34:52.534Z,96.90
2017-12-17T11:37:20.058Z,96.80
2017-12-17T11:39:47.578Z,96.80
2017-12-17T11:42:15.843Z,96.40
2017-12-17T11:44:43.362Z,96.40
2017-12-17T11:47:10.877Z,96.80
2017-12-17T11:49:39.154Z,96.20
2017-12-17T11:52:07.437Z,96.40
2017-12-17T11:54:35.729Z,96.30
2017-12-17T11:57:03.225Z,96.20
2017-12-17T11:59:30.721Z,96.70
2017-12-17T12:01:58.998Z,96.40
2017-12-17T12:04:27.258Z,96.50
2017-12-17T12:06:54.775Z,96.50
2017-12-17T12:09:22.265Z,96.30
2017-12-17T12:11:49.770Z,96.50
2017-12-17T12:14:17.267Z,96.30
2017-12-17T12:16:44.877Z,96.20
2017-12-17T12:19:13.145Z,96.20
2017-12-17T12:21:40.719Z,96.10
2017-12-17T12:24:08.297Z,96.40
2017-12-17T12:26:35.849Z,96.40
2017-12-17T12:29:03.377Z,96.00
2017-12-17T12:31:31.745Z,95.70
2017-12-17T12:34:00.033Z,96.10
2017-12-17T12:36:28.416Z,96.10
2017-12-17T12:38:56.697Z,96.70
2017-12-17T12:41:24.969Z,96.60
2017-12-17T12:43:53.250Z,96.50
2017-12-17T12:46:21.525Z,96.20
2017-12-17T12:48:49.815Z,96.20
2017-12-17T12:51:18.122Z,96.50
2017-12-17T12:53:45.654Z,96.50
2017-12-17T12:56:13.163Z,96.40
2017-12-17T12:58:40.660Z,96.20
2017-12-17T13:01:08.938Z,96.00
2017-12-17T13:03:37.482Z,95.90
2017-12-17T13:06:04.989Z,95.90
2017-12-17T13:08:32.578Z,96.00
2017-12-17T13:11:00.075Z,96.00
2017-12-17T13:13:28.384Z,95.70
2017-12-17T13:15:55.881Z,95.70
2017-12-17T13:18:24.345Z,95.70
2017-12-17T13:20:52.607Z,95.50
2017-12-17T13:23:20.163Z,95.40
2017-12-17T13:25:47.722Z,95.50
2017-12-17T13:28:15.987Z,95.90
2017-12-17T13:30:44.353Z,95.80
2017-12-17T13:33:11.968Z,95.70
2017-12-17T13:35:39.502Z,95.60
2017-12-17T13:38:07.119Z,95.60
2017-12-17T13:40:34.625Z,95.80
2017-12-17T13:43:02.207Z,95.60
2017-12-17T13:45:29.735Z,95.50
2017-12-17T13:47:58.016Z,95.40
2017-12-17T13:50:25.514Z,95.40
2017-12-17T13:52:53.038Z,95.60
2017-12-17T13:55:20.538Z,95.60
2017-12-17T13:57:48.060Z,95.60
2017-12-17T14:00:15.566Z,95.50
2017-12-17T14:02:43.130Z,95.50
2017-12-17T14:05:10.650Z,95.50
2017-12-17T14:07:38.472Z,95.60
2017-12-17T14:10:06.754Z,95.40
2017-12-17T14:12:35.018Z,95.50
2017-12-17T14:15:03.316Z,95.70
2017-12-17T14:17:31.601Z,95.40
2017-12-17T14:19:59.912Z,95.70
2017-12-17T14:22:27.424Z,95.70
2017-12-17T14:24:54.969Z,95.40
2017-12-17T14:27:22.522Z,95.50
2017-12-17T14:29:50.862Z,95.00
2017-12-17T14:32:18.421Z,95.00
2017-12-17T14:34:45.932Z,95.20
2017-12-17T14:37:13.543Z,95.10
2017-12-17T14:39:41.091Z,95.40
2017-12-17T14:42:08.598Z,95.10
2017-12-17T14:44:36.091Z,95.00
2017-12-17T14:47:03.633Z,94.80
2017-12-17T14:49:31.925Z,94.70
2017-12-17T14:51:59.504Z,94.70
2017-12-17T14:54:27.010Z,94.50
2017-12-17T14:56:54.552Z,94.40
2017-12-17T14:59:22.071Z,94.50
2017-12-17T15:01:49.583Z,94.50
2017-12-17T15:04:17.089Z,94.50
2017-12-17T15:06:44.583Z,94.70
2017-12-17T15:09:12.086Z,94.80
2017-12-17T15:11:40.346Z,95.40
2017-12-17T15:14:07.841Z,95.10
2017-12-17T15:16:35.355Z,95.30
2017-12-17T15:19:02.962Z,95.20
2017-12-17T15:21:30.509Z,95.30
2017-12-17T15:23:57.982Z,95.30
2017-12-17T15:26:25.482Z,95.20
2017-12-17T15:28:52.991Z,95.20
2017-12-17T15:31:21.247Z,95.20
2017-12-17T15:33:48.758Z,95.20
2017-12-17T15:36:16.254Z,95.20
2017-12-17T15:38:43.762Z,95.20
2017-12-17T15:41:11.265Z,95.20
2017-12-17T15:43:38.754Z,95.20
2017-12-17T15:46:07.042Z,95.10
2017-12-17T15:48:34.627Z,95.00
2017-12-17T15:51:02.142Z,94.80
2017-12-17T15:53:30.398Z,95.20
2017-12-17T15:55:57.890Z,95.20
2017-12-17T15:58:26.161Z,95.30
2017-12-17T16:00:54.422Z,95.50
2017-12-17T16:03:21.928Z,95.50
2017-12-17T16:05:49.414Z,95.30
2017-12-17T16:08:16.920Z,95.30
2017-12-17T16:10:45.183Z,95.10
2017-12-17T16:13:13.787Z,95.30
2017-12-17T16:15:42.080Z,95.30
2017-12-17T16:18:09.570Z,95.30
2017-12-17T16:20:37.102Z,95.20
2017-12-17T16:23:04.602Z,95.10
2017-12-17T16:25:32.111Z,95.30
2017-12-17T16:27:59.610Z,95.20
2017-12-17T16:30:27.115Z,95.20
2017-12-17T16:32:54.614Z,95.20
2017-12-17T16:35:22.148Z,95.30
2017-12-17T16:37:49.690Z,95.20
2017-12-17T16:40:17.950Z,95.40
2017-12-17T16:42:46.245Z,95.20
2017-12-17T16:45:13.754Z,95.20
2017-12-17T16:47:41.321Z,95.00
2017-12-17T16:50:08.820Z,95.00
2017-12-17T16:52:37.108Z,94.90
2017-12-17T16:55:04.622Z,94.90
2017-12-17T16:57:32.123Z,94.70
2017-12-17T17:00:06.078Z,94.70
2017-12-17T17:02:33.565Z,94.80
2017-12-17T17:05:01.830Z,94.90
2017-12-17T17:07:29.342Z,94.80
2017-12-17T17:09:56.863Z,94.90
2017-12-17T17:12:25.175Z,94.90
2017-12-17T17:14:52.674Z,94.90
2017-12-17T17:17:20.180Z,94.90
2017-12-17T17:19:47.694Z,94.70
2017-12-17T17:22:15.202Z,94.70
2017-12-17T17:24:42.712Z,94.70
2017-12-17T17:27:10.993Z,94.60
2017-12-17T17:29:38.500Z,94.30
2017-12-17T17:32:06.070Z,94.30
2017-12-17T17:34:33.579Z,94.40
2017-12-17T17:37:01.094Z,93.80
2017-12-17T17:39:28.602Z,93.70
2017-12-17T17:41:56.095Z,93.40
2017-12-17T17:44:23.624Z,93.90
2017-12-17T17:46:51.905Z,93.70
2017-12-17T17:49:20.180Z,93.60
2017-12-17T17:51:48.469Z,93.20
2017-12-17T17:54:16.955Z,93.20
2017-12-17T17:56:44.462Z,93.20
2017-12-17T17:59:11.985Z,93.10
2017-12-17T18:01:39.525Z,92.90
2017-12-17T18:04:07.791Z,93.10
2017-12-17T18:06:36.105Z,93.10
2017-12-17T18:09:03.608Z,93.10
2017-12-17T18:11:31.122Z,93.00
2017-12-17T18:13:58.650Z,92.80
2017-12-17T18:16:26.945Z,92.70
2017-12-17T18:18:54.442Z,92.70
2017-12-17T18:21:21.939Z,92.70
2017-12-17T18:23:50.215Z,92.60
2017-12-17T18:26:18.526Z,92.60
2017-12-17T18:28:46.034Z,92.50
2017-12-17T18:31:13.530Z,92.50
2017-12-17T18:33:41.073Z,92.20
2017-12-17T18:36:09.334Z,92.50
2017-12-17T18:38:36.825Z,92.40
2017-12-17T18:41:05.150Z,92.50
2017-12-17T18:43:32.618Z,92.50
2017-12-17T18:46:00.127Z,92.10
2017-12-17T18:48:27.620Z,92.00
2017-12-17T18:50:55.133Z,92.10
2017-12-17T18:53:23.430Z,91.80
2017-12-17T18:55:50.937Z,91.80
2017-12-17T18:58:18.446Z,91.90
2017-12-17T19:00:46.705Z,92.30
2017-12-17T19:03:14.218Z,92.30
2017-12-17T19:05:41.712Z,92.50
2017-12-17T19:08:10.006Z,92.70
2017-12-17T19:10:37.493Z,92.60
2017-12-17T19:13:04.992Z,92.70
2017-12-17T19:15:32.494Z,92.90
2017-12-17T19:18:00.060Z,92.80
2017-12-17T19:20:27.604Z,92.70
2017-12-17T19:22:55.150Z,92.80
2017-12-17T19:25:22.671Z,92.80
2017-12-17T19:27:50.167Z,92.80
2017-12-17T19:30:18.430Z,92.90
2017-12-17T19:32:46.706Z,92.80
2017-12-17T19:35:14.306Z,92.80
2017-12-17T19:37:41.830Z,92.60
2017-12-17T19:40:10.107Z,92.60
2017-12-17T19:42:38.407Z,92.60
2017-12-17T19:45:05.923Z,92.60
2017-12-17T19:47:33.438Z,92.70
2017-12-17T19:50:00.935Z,92.50
2017-12-17T19:52:28.451Z,92.50
2017-12-17T19:54:55.956Z,92.70
2017-12-17T19:57:25.017Z,92.20
2017-12-17T19:59:52.586Z,92.20
2017-12-17T20:02:20.079Z,92.30
2017-12-17T20:04:47.581Z,92.30
2017-12-17T20:07:15.097Z,92.10
2017-12-17T20:09:42.582Z,92.00
2017-12-17T20:12:10.854Z,91.90
2017-12-17T20:14:39.105Z,92.00
2017-12-17T20:17:06.617Z,91.90
2017-12-17T20:19:34.113Z,91.90
2017-12-17T20:22:01.634Z,92.10
2017-12-17T20:24:29.126Z,91.80
2017-12-17T20:26:56.655Z,91.70
2017-12-17T20:29:24.153Z,91.80
2017-12-17T20:31:51.650Z,91.80
2017-12-17T20:34:19.158Z,91.80
2017-12-17T20:36:46.656Z,91.70
2017-12-17T20:39:14.926Z,91.80
2017-12-17T20:41:43.186Z,91.80
2017-12-17T20:44:10.709Z,91.80
2017-12-17T20:46:38.202Z,91.70
2017-12-17T20:49:05.713Z,91.70
2017-12-17T20:51:33.207Z,91.80
2017-12-17T20:54:00.694Z,91.60
2017-12-17T20:56:28.980Z,91.90
2017-12-17T20:58:57.231Z,91.50
2017-12-17T21:01:24.729Z,91.50
2017-12-17T21:03:52.217Z,91.70
2017-12-17T21:06:19.729Z,91.60
2017-12-17T21:08:47.983Z,91.60
2017-12-17T21:11:15.582Z,91.60
2017-12-17T21:13:43.138Z,91.70
2017-12-17T21:16:11.394Z,91.60
2017-12-17T21:18:39.680Z,91.70
2017-12-17T21:21:07.945Z,91.80
2017-12-17T21:23:36.227Z,91.60
2017-12-17T21:26:04.498Z,91.70
2017-12-17T21:28:31.994Z,91.70
2017-12-17T21:30:59.481Z,91.70
2017-12-17T21:33:27.053Z,91.40
2017-12-17T21:35:54.562Z,91.50
2017-12-17T21:38:22.049Z,91.30
2017-12-17T21:40:49.556Z,91.50
2017-12-17T21:43:17.812Z,91.30
2017-12-17T21:45:45.445Z,91.20
2017-12-17T21:48:13.094Z,91.20
2017-12-17T21:50:40.880Z,91.20
2017-12-17T21:53:08.393Z,91.10
2017-12-17T21:55:36.687Z,91.20
2017-12-17T21:58:04.308Z,91.20
2017-12-17T22:00:31.841Z,91.20
2017-12-17T22:02:59.442Z,91.30
2017-12-17T22:05:27.696Z,91.60
2017-12-17T22:07:55.200Z,91.60
2017-12-17T22:10:22.702Z,91.50
2017-12-17T22:12:50.202Z,91.60
2017-12-17T22:15:17.715Z,91.40
2017-12-17T22:17:45.231Z,91.10
2017-12-17T22:20:12.742Z,91.10
2017-12-17T22:22:40.226Z,91.10
2017-12-17T22:25:08.490Z,91.10
2017-12-17T22:27:35.990Z,91.10
2017-12-17T22:30:03.534Z,90.70
2017-12-17T22:32:31.799Z,90.50
2017-12-17T22:35:00.078Z,90.30
2017-12-17T22:37:28.498Z,90.40
2017-12-17T22:39:56.017Z,90.30
2017-12-17T22:42:24.342Z,90.20
2017-12-17T22:44:51.826Z,90.20
2017-12-17T22:47:20.108Z,90.10
2017-12-17T22:49:47.589Z,90.10
2017-12-17T22:52:15.859Z,90.10
2017-12-17T22:54:43.344Z,90.10
2017-12-17T22:57:10.882Z,90.10
2017-12-17T22:59:39.146Z,90.80
2017-12-17T23:02:06.666Z,90.80
2017-12-17T23:04:34.174Z,90.70
2017-12-17T23:07:02.474Z,91.60
2017-12-17T23:09:29.978Z,91.60
2017-12-17T23:11:57.478Z,92.20
2017-12-17T23:14:25.745Z,92.90
2017-12-17T23:16:53.998Z,93.00
2017-12-17T23:19:21.601Z,93.00
2017-12-17T23:21:49.862Z,93.90
2017-12-17T23:24:18.142Z,94.30
2017-12-17T23:26:46.411Z,94.50
2017-12-17T23:29:14.714Z,94.60
2017-12-17T23:31:42.222Z,94.70
2017-12-17T23:34:09.717Z,94.70
2017-12-17T23:36:37.999Z,95.30
2017-12-17T23:39:06.266Z,95.80
2017-12-17T23:41:34.548Z,96.00
2017-12-17T23:44:02.806Z,96.10
2017-12-17T23:46:31.101Z,96.30
2017-12-17T23:48:59.370Z,96.80
2017-12-17T23:51:27.648Z,96.70
2017-12-17T23:53:55.919Z,97.00
2017-12-17T23:56:24.174Z,96.80
2017-12-17T23:58:51.719Z,96.80
